메인 페이지
METAR-TAF:

METAR-TAF

공항 :

올레순, 노르웨이

위도: 62-34N, 경도: 006-07E, 고도: 2m

현재 날씨관측

예보는 41분 전, 08:50시(UTC)에 발표되었습니다.
남서27kt, 순간 최대 풍속 38kt
온도 11°C
습도 82%
기압 1009 hPa
시정 10km 이상
고도 1500ft 상공 구름 조금
고도 2200ft 상공 구름 많음
약한소나기, 이슬비,

METAR: ENAL 200850Z 23027G38KT 9999 -SHRADZ FEW015 BKN022 11/08 Q1009

시각: 11:31 (09:31 UTC)

예보

예보는 1 시간 31분 전, 08:00시(UTC)에 발표되었습니다.
예보 대상 시간: 20일 09시부터 20일 18시까지 (UTC)
남서25kt
시정 10km 이상
고도 2000ft 상공 구름 조금, 타워링 적운.
고도 3500ft 상공 구름 많음
약한소나기
일시적
20일 09시부터 20일 12시까지 (UTC)
서남서30kt, 순간 최대 풍속 42kt
일시적
20일 09시부터 20일 18시까지 (UTC)
고도 1400ft 상공 구름 많음, 타워링 적운.
소나기
전환 중
20일 12시부터 20일 14시까지 (UTC)
서남서15kt
일시적
20일 12시부터 20일 15시까지 (UTC)
서남서18kt, 순간 최대 풍속 30kt

TAF: ENAL 200800Z 2009/2018 23025KT 9999 -SHRA FEW020TCU BKN035 TEMPO 2009/2012 24030G42KT TEMPO 2009/2018 SHRA BKN014TCU BECMG 2012/2014 24015KT TEMPO 2012/2015 24018G30KT

4,000개 이상의 공항 관측 자료 및 예보 (METAR 및 TAF 보고).

지도상에서 검색 가능한 기상관측소가 노란 점과 빨간 점으로 표시되어 있습니다.

기상관측소 명을 보려면 표시 위로 마우스를 이동하세요.

날씨 관측과 예보를 보려면 클릭하세요.

지도 변경 : 확대하려면 엑스 표시가 있는 녹색 버튼, 축소하려면 빼기 표시가 있는 녹색 버튼, 다음 페이지의 지도를 보려면 녹색 화살표를 클릭하세요.


METAR-TAF: